createdAt,value
2019-05-03T00:03:09.585Z,48.70
2019-05-03T00:05:41.754Z,48.10
2019-05-03T00:08:08.413Z,48.00
2019-05-03T00:10:35.606Z,48.00
2019-05-03T00:13:02.719Z,48.10
2019-05-03T00:15:36.386Z,48.00
2019-05-03T00:18:03.474Z,48.00
2019-05-03T00:20:32.506Z,47.90
2019-05-03T00:22:57.677Z,47.90
2019-05-03T00:25:24.865Z,48.00
2019-05-03T00:27:52.777Z,47.80
2019-05-03T00:30:19.222Z,47.80
2019-05-03T00:32:46.367Z,48.40
2019-05-03T00:35:16.123Z,47.80
2019-05-03T00:37:43.399Z,47.80
2019-05-03T00:40:12.283Z,47.70
2019-05-03T00:42:39.259Z,47.70
2019-05-03T00:45:06.496Z,47.80
2019-05-03T00:47:33.588Z,47.70
2019-05-03T00:50:02.640Z,47.60
2019-05-03T00:52:28.128Z,47.70
2019-05-03T00:54:55.231Z,47.70
2019-05-03T00:57:22.719Z,47.50
2019-05-03T00:59:49.532Z,47.60
2019-05-03T01:02:16.680Z,47.50
2019-05-03T01:04:43.814Z,47.60
2019-05-03T01:07:11.732Z,47.30
2019-05-03T01:09:38.070Z,47.50
2019-05-03T01:12:05.140Z,47.30
2019-05-03T01:14:32.310Z,47.20
2019-05-03T01:16:59.455Z,47.20
2019-05-03T01:19:26.583Z,47.10
2019-05-03T01:21:53.698Z,47.00
2019-05-03T01:24:21.764Z,47.00
2019-05-03T01:26:47.964Z,47.10
2019-05-03T01:29:15.063Z,47.00
2019-05-03T01:31:42.230Z,47.00
2019-05-03T01:34:09.407Z,46.90
2019-05-03T01:36:36.597Z,46.90
2019-05-03T01:39:04.105Z,46.80
2019-05-03T01:41:32.374Z,46.80
2019-05-03T01:43:58.458Z,46.80
2019-05-03T01:46:25.623Z,46.70
2019-05-03T01:49:02.106Z,46.80
2019-05-03T01:51:41.952Z,46.60
2019-05-03T01:54:07.034Z,46.50
2019-05-03T01:56:34.160Z,46.50
2019-05-03T01:59:01.820Z,46.40
2019-05-03T02:01:36.202Z,46.50
2019-05-03T02:04:08.032Z,46.40
2019-05-03T02:06:35.250Z,46.20
2019-05-03T02:09:02.340Z,46.20
2019-05-03T02:11:29.531Z,46.30
2019-05-03T02:13:56.615Z,46.30
2019-05-03T02:16:23.748Z,46.20
2019-05-03T02:18:51.808Z,46.20
2019-05-03T02:21:17.996Z,46.20
2019-05-03T02:23:45.079Z,46.10
2019-05-03T02:26:12.187Z,46.10
2019-05-03T02:28:39.319Z,46.20
2019-05-03T02:31:06.455Z,46.00
2019-05-03T02:33:33.615Z,46.00
2019-05-03T02:36:03.719Z,46.00
2019-05-03T02:38:27.955Z,45.90
2019-05-03T02:40:55.084Z,45.90
2019-05-03T02:43:26.028Z,45.90
2019-05-03T02:46:00.698Z,45.90
2019-05-03T02:48:32.614Z,45.70
2019-05-03T02:50:59.680Z,45.70
2019-05-03T02:53:26.847Z,45.90
2019-05-03T02:55:56.070Z,45.70
2019-05-03T02:58:21.133Z,45.60
2019-05-03T03:00:56.056Z,45.70
2019-05-03T03:03:20.667Z,45.80
2019-05-03T03:05:47.755Z,45.70
2019-05-03T03:08:16.277Z,45.60
2019-05-03T03:10:45.417Z,45.50
2019-05-03T03:13:09.873Z,45.60
2019-05-03T03:15:36.940Z,45.70
2019-05-03T03:18:06.305Z,45.70
2019-05-03T03:20:32.320Z,45.60
2019-05-03T03:22:59.427Z,45.60
2019-05-03T03:25:27.332Z,45.60
2019-05-03T03:27:55.779Z,45.60
2019-05-03T03:30:38.205Z,45.60
2019-05-03T03:33:02.864Z,45.50
2019-05-03T03:35:30.605Z,45.60
2019-05-03T03:37:57.089Z,46.10
2019-05-03T03:40:25.476Z,45.50
2019-05-03T03:42:51.406Z,45.70
2019-05-03T03:45:18.524Z,45.70
2019-05-03T03:47:46.403Z,45.60
2019-05-03T03:50:15.037Z,45.50
2019-05-03T03:52:40.439Z,45.50
2019-05-03T03:55:07.623Z,45.40
2019-05-03T03:57:35.734Z,45.60
2019-05-03T04:00:05.262Z,45.40
2019-05-03T04:02:30.767Z,45.40
2019-05-03T04:04:57.827Z,45.40
2019-05-03T04:07:26.193Z,45.40
2019-05-03T04:09:52.103Z,45.30
2019-05-03T04:12:20.629Z,45.40
2019-05-03T04:14:56.261Z,45.30
2019-05-03T04:17:30.660Z,45.30
2019-05-03T04:19:57.746Z,45.30
2019-05-03T04:22:25.399Z,45.30
2019-05-03T04:24:52.025Z,45.90
2019-05-03T04:27:23.526Z,45.20
2019-05-03T04:29:46.565Z,45.20
2019-05-03T04:32:15.715Z,45.30
2019-05-03T04:34:40.947Z,45.20
2019-05-03T04:37:08.030Z,45.30
2019-05-03T04:39:36.186Z,45.20
2019-05-03T04:42:02.886Z,45.20
2019-05-03T04:44:30.402Z,45.20
2019-05-03T04:46:58.463Z,45.30
2019-05-03T04:49:26.102Z,45.20
2019-05-03T04:51:51.771Z,45.20
2019-05-03T04:54:25.037Z,45.40
2019-05-03T04:56:49.983Z,45.20
2019-05-03T04:59:17.091Z,45.20
2019-05-03T05:01:46.074Z,45.10
2019-05-03T05:04:11.344Z,45.10
2019-05-03T05:06:38.491Z,45.10
2019-05-03T05:09:05.988Z,45.10
2019-05-03T05:11:35.067Z,45.00
2019-05-03T05:14:00.368Z,45.20
2019-05-03T05:16:27.463Z,45.20
2019-05-03T05:18:57.092Z,45.30
2019-05-03T05:21:28.883Z,45.00
2019-05-03T05:24:00.427Z,45.10
2019-05-03T05:26:32.166Z,45.10
2019-05-03T05:29:00.859Z,45.10
2019-05-03T05:31:28.046Z,45.10
2019-05-03T05:33:55.203Z,45.10
2019-05-03T05:36:24.382Z,45.00
2019-05-03T05:38:50.544Z,45.00
2019-05-03T05:41:17.965Z,44.90
2019-05-03T05:43:45.145Z,44.90
2019-05-03T05:46:14.491Z,44.90
2019-05-03T05:48:45.244Z,45.00
2019-05-03T05:51:13.517Z,45.10
2019-05-03T05:53:37.979Z,44.90
2019-05-03T05:56:10.876Z,45.00
2019-05-03T05:58:44.890Z,44.90
2019-05-03T06:01:14.637Z,45.00
2019-05-03T06:03:41.171Z,44.90
2019-05-03T06:06:09.133Z,44.90
2019-05-03T06:08:40.910Z,45.00
2019-05-03T06:11:14.885Z,44.90
2019-05-03T06:13:45.215Z,44.80
2019-05-03T06:16:18.868Z,45.10
2019-05-03T06:18:51.832Z,44.90
2019-05-03T06:21:24.947Z,44.80
2019-05-03T06:23:56.265Z,44.90
2019-05-03T06:26:27.115Z,44.80
2019-05-03T06:28:54.528Z,44.80
2019-05-03T06:31:26.055Z,45.10
2019-05-03T06:33:55.233Z,44.90
2019-05-03T06:36:20.312Z,44.80
2019-05-03T06:38:47.431Z,44.90
2019-05-03T06:41:15.050Z,44.80
2019-05-03T06:43:47.163Z,45.50
2019-05-03T06:46:08.860Z,44.80
2019-05-03T06:48:35.948Z,44.80
2019-05-03T06:51:08.685Z,44.80
2019-05-03T06:53:30.232Z,44.80
2019-05-03T06:55:57.319Z,44.80
2019-05-03T06:58:31.326Z,44.70
2019-05-03T07:00:56.923Z,44.80
2019-05-03T07:03:28.490Z,44.80
2019-05-03T07:06:01.289Z,44.70
2019-05-03T07:08:34.500Z,44.70
2019-05-03T07:11:01.491Z,44.80
2019-05-03T07:13:28.581Z,44.60
2019-05-03T07:15:56.051Z,44.60
2019-05-03T07:18:24.751Z,44.70
2019-05-03T07:20:56.459Z,44.60
2019-05-03T07:23:20.116Z,44.60
2019-05-03T07:25:47.227Z,44.60
2019-05-03T07:28:14.912Z,44.50
2019-05-03T07:30:41.510Z,44.50
2019-05-03T07:33:12.024Z,44.60
2019-05-03T07:35:39.179Z,44.50
2019-05-03T07:38:06.351Z,44.60
2019-05-03T07:40:35.226Z,44.50
2019-05-03T07:43:00.677Z,44.50
2019-05-03T07:45:27.771Z,44.50
2019-05-03T07:47:55.877Z,44.40
2019-05-03T07:50:22.115Z,44.50
2019-05-03T07:52:49.204Z,44.40
2019-05-03T07:55:16.470Z,44.40
2019-05-03T07:57:48.970Z,44.30
2019-05-03T08:00:17.310Z,44.40
2019-05-03T08:02:44.745Z,44.30
2019-05-03T08:05:11.490Z,44.30
2019-05-03T08:07:38.592Z,44.30
2019-05-03T08:10:05.932Z,44.30
2019-05-03T08:12:34.820Z,44.50
2019-05-03T08:15:00.147Z,44.20
2019-05-03T08:17:27.380Z,44.10
2019-05-03T08:19:55.229Z,44.20
2019-05-03T08:22:21.795Z,44.20
2019-05-03T08:24:48.903Z,44.10
2019-05-03T08:27:16.090Z,44.10
2019-05-03T08:29:45.279Z,44.10
2019-05-03T08:32:15.948Z,44.00
2019-05-03T08:34:50.421Z,44.10
2019-05-03T08:37:21.955Z,44.10
2019-05-03T08:39:49.172Z,44.10
2019-05-03T08:42:20.006Z,44.00
2019-05-03T08:44:47.159Z,44.20
2019-05-03T08:47:15.477Z,44.10
2019-05-03T08:49:41.484Z,44.00
2019-05-03T08:52:09.287Z,44.00
2019-05-03T08:54:36.462Z,43.90
2019-05-03T08:57:06.045Z,43.90
2019-05-03T08:59:32.758Z,43.90
2019-05-03T09:01:57.882Z,43.90
2019-05-03T09:04:36.072Z,43.80
2019-05-03T09:06:52.140Z,43.80
2019-05-03T09:09:31.633Z,44.00
2019-05-03T09:11:58.707Z,43.80
2019-05-03T09:14:38.498Z,43.80
2019-05-03T09:16:52.996Z,43.80
2019-05-03T09:19:20.126Z,43.70
2019-05-03T09:21:47.275Z,43.80
2019-05-03T09:24:15.204Z,43.80
2019-05-03T09:26:41.607Z,43.70
2019-05-03T09:29:08.826Z,43.80
2019-05-03T09:31:35.975Z,43.80
2019-05-03T09:34:07.499Z,43.70
2019-05-03T09:36:30.246Z,43.80
2019-05-03T09:38:57.443Z,43.90
2019-05-03T09:41:25.662Z,43.80
2019-05-03T09:43:51.720Z,43.80
2019-05-03T09:46:18.879Z,43.70
2019-05-03T09:48:46.016Z,43.70
2019-05-03T09:51:14.791Z,43.70
2019-05-03T09:53:45.398Z,43.80
2019-05-03T09:56:15.364Z,43.80
2019-05-03T09:58:40.985Z,43.60
2019-05-03T10:01:08.706Z,43.80
2019-05-03T10:03:36.550Z,43.70
2019-05-03T10:06:02.373Z,43.70
2019-05-03T10:08:29.519Z,43.80
2019-05-03T10:11:02.437Z,43.60
2019-05-03T10:13:29.524Z,43.60
2019-05-03T10:15:56.619Z,43.70
2019-05-03T10:18:25.449Z,43.70
2019-05-03T10:20:50.818Z,43.70
2019-05-03T10:23:52.091Z,43.70
2019-05-03T10:26:19.259Z,43.70
2019-05-03T10:28:46.514Z,43.70
2019-05-03T10:31:14.540Z,43.70
2019-05-03T10:34:00.258Z,43.70
2019-05-03T10:36:27.356Z,43.90
2019-05-03T10:38:55.390Z,43.80
2019-05-03T10:41:21.656Z,43.80
2019-05-03T10:43:48.786Z,43.80
2019-05-03T10:46:16.099Z,43.80
2019-05-03T10:48:45.074Z,43.70
2019-05-03T10:51:10.187Z,43.70
2019-05-03T10:53:39.710Z,43.70
2019-05-03T10:56:13.943Z,43.80
2019-05-03T10:58:41.043Z,43.70
2019-05-03T11:01:08.106Z,43.60
2019-05-03T11:03:35.258Z,43.70
2019-05-03T11:06:02.421Z,43.70
2019-05-03T11:08:30.166Z,43.70
2019-05-03T11:10:57.327Z,43.60
2019-05-03T11:13:26.410Z,43.60
2019-05-03T11:15:51.649Z,43.70
2019-05-03T11:18:18.779Z,43.70
2019-05-03T11:20:45.882Z,43.80
2019-05-03T11:23:14.657Z,43.70
2019-05-03T11:25:40.360Z,43.60
2019-05-03T11:28:11.599Z,43.70
2019-05-03T11:30:51.952Z,44.60
2019-05-03T11:33:09.054Z,43.70
2019-05-03T11:35:50.248Z,43.80
2019-05-03T11:38:20.143Z,43.90
2019-05-03T11:40:47.398Z,43.90
2019-05-03T11:43:15.260Z,43.80
2019-05-03T11:45:41.747Z,43.70
2019-05-03T11:48:08.934Z,43.80
2019-05-03T11:50:36.075Z,43.80
2019-05-03T11:53:04.956Z,43.80
2019-05-03T11:55:30.423Z,43.70
2019-05-03T11:57:57.600Z,43.80
2019-05-03T12:00:28.109Z,43.80
2019-05-03T12:03:04.847Z,43.80
2019-05-03T12:05:29.889Z,43.80
2019-05-03T12:07:56.987Z,43.70
2019-05-03T12:10:36.328Z,43.70
2019-05-03T12:13:01.556Z,43.70
2019-05-03T12:15:29.023Z,43.80
2019-05-03T12:17:59.069Z,43.80
2019-05-03T12:20:27.756Z,43.60
2019-05-03T12:22:52.159Z,43.80
2019-05-03T12:25:19.407Z,43.90
2019-05-03T12:27:45.910Z,44.00
2019-05-03T12:30:15.224Z,43.80
2019-05-03T12:32:40.245Z,43.90
2019-05-03T12:35:07.324Z,43.80
2019-05-03T12:37:35.374Z,43.80
2019-05-03T12:40:01.637Z,44.00
2019-05-03T12:42:28.758Z,43.80
2019-05-03T12:44:55.827Z,43.50
2019-05-03T12:47:25.003Z,43.90
2019-05-03T12:49:50.092Z,43.90
2019-05-03T12:52:17.757Z,44.00
2019-05-03T12:54:44.435Z,43.80
2019-05-03T12:57:11.645Z,43.80
2019-05-03T12:59:45.024Z,43.80
2019-05-03T13:02:16.087Z,43.80
2019-05-03T13:04:44.669Z,43.70
2019-05-03T13:07:16.756Z,43.90
2019-05-03T13:09:45.353Z,43.80
2019-05-03T13:12:11.154Z,43.70
2019-05-03T13:14:38.222Z,43.70
2019-05-03T13:17:05.384Z,43.80
2019-05-03T13:19:34.958Z,43.70
2019-05-03T13:22:00.193Z,43.70
2019-05-03T13:24:27.376Z,43.70
2019-05-03T13:26:54.555Z,43.80
2019-05-03T13:29:21.803Z,43.80
2019-05-03T13:31:58.241Z,43.80
2019-05-03T13:34:16.082Z,43.70
2019-05-03T13:36:45.483Z,43.70
2019-05-03T13:39:14.176Z,43.70
2019-05-03T13:41:37.592Z,43.70
2019-05-03T13:44:05.173Z,43.70
2019-05-03T13:46:31.950Z,43.80
2019-05-03T13:48:59.108Z,43.70
2019-05-03T13:51:26.255Z,43.80
2019-05-03T13:53:55.035Z,43.70
2019-05-03T13:56:20.480Z,43.80
2019-05-03T13:58:47.583Z,43.70
2019-05-03T14:01:14.891Z,43.80
2019-05-03T14:03:41.951Z,43.80
2019-05-03T14:06:09.603Z,43.80
2019-05-03T14:08:36.299Z,43.90
2019-05-03T14:11:05.000Z,43.90
2019-05-03T14:13:30.779Z,43.80
2019-05-03T14:15:58.318Z,43.90
2019-05-03T14:18:25.659Z,43.90
2019-05-03T14:20:57.364Z,43.80
2019-05-03T14:23:25.366Z,43.90
2019-05-03T14:25:51.646Z,43.90
2019-05-03T14:28:18.754Z,43.90
2019-05-03T14:30:45.916Z,43.90
2019-05-03T14:33:13.099Z,44.00
2019-05-03T14:35:40.306Z,43.90
2019-05-03T14:38:07.458Z,44.00
2019-05-03T14:40:34.619Z,43.80
2019-05-03T14:43:01.803Z,43.80
2019-05-03T14:45:28.950Z,43.90
2019-05-03T14:47:57.738Z,43.90
2019-05-03T14:50:25.367Z,43.90
2019-05-03T14:52:50.583Z,43.90
2019-05-03T14:55:22.566Z,43.80
2019-05-03T14:57:55.326Z,43.90
2019-05-03T15:00:28.109Z,44.00
2019-05-03T15:03:01.298Z,44.00
2019-05-03T15:05:28.439Z,44.00
2019-05-03T15:07:55.951Z,44.00
2019-05-03T15:10:22.728Z,44.10
2019-05-03T15:12:49.818Z,44.10
2019-05-03T15:15:17.007Z,44.10
2019-05-03T15:17:45.770Z,44.10
2019-05-03T15:20:11.294Z,44.70
2019-05-03T15:22:38.451Z,44.00
2019-05-03T15:25:05.586Z,44.10
2019-05-03T15:27:32.755Z,44.10
2019-05-03T15:30:00.129Z,44.00
2019-05-03T15:32:27.179Z,44.00
2019-05-03T15:34:55.325Z,43.90
2019-05-03T15:37:21.472Z,43.90
2019-05-03T15:39:48.569Z,44.00
2019-05-03T15:42:15.695Z,44.00
2019-05-03T15:44:54.566Z,44.00
2019-05-03T15:47:26.130Z,44.00
2019-05-03T15:49:55.272Z,43.90
2019-05-03T15:52:20.720Z,44.00
2019-05-03T15:54:47.891Z,43.90
2019-05-03T15:57:14.981Z,43.90
2019-05-03T15:59:42.130Z,44.00
2019-05-03T16:02:09.266Z,44.10
2019-05-03T16:04:36.416Z,44.00
2019-05-03T16:07:04.902Z,43.90
2019-05-03T16:09:30.676Z,43.90
2019-05-03T16:11:57.965Z,44.00
2019-05-03T16:14:25.147Z,44.00
2019-05-03T16:16:52.238Z,44.00
2019-05-03T16:19:20.096Z,43.90
2019-05-03T16:21:47.195Z,43.90
2019-05-03T16:24:15.520Z,43.90
2019-05-03T16:27:16.692Z,44.00
2019-05-03T16:29:44.523Z,44.00
2019-05-03T16:32:11.024Z,43.90
2019-05-03T16:34:38.171Z,44.00
2019-05-03T16:37:05.340Z,43.90
2019-05-03T16:39:32.477Z,43.90
2019-05-03T16:41:59.587Z,43.90
2019-05-03T16:44:26.705Z,44.00
2019-05-03T16:46:55.398Z,43.90
2019-05-03T16:49:21.115Z,43.90
2019-05-03T16:51:48.253Z,43.80
2019-05-03T16:54:16.502Z,44.00
2019-05-03T16:56:44.443Z,44.00
2019-05-03T16:59:09.945Z,44.00
2019-05-03T17:01:37.096Z,43.90
2019-05-03T17:04:10.003Z,44.00
2019-05-03T17:06:45.202Z,44.00
2019-05-03T17:10:20.754Z,43.90
2019-05-03T17:12:47.980Z,43.90
2019-05-03T17:15:15.065Z,44.00
2019-05-03T17:17:42.134Z,44.00
2019-05-03T17:20:09.291Z,44.10
2019-05-03T17:22:36.362Z,43.90
2019-05-03T17:25:04.255Z,43.90
2019-05-03T17:27:31.408Z,43.90
2019-05-03T17:29:58.546Z,43.90
2019-05-03T17:32:25.682Z,44.00
2019-05-03T17:34:54.707Z,44.00
2019-05-03T17:37:19.971Z,43.90
2019-05-03T17:39:54.748Z,44.00
2019-05-03T17:42:27.480Z,43.80
2019-05-03T17:44:54.669Z,43.90
2019-05-03T17:47:21.767Z,43.80
2019-05-03T17:49:48.992Z,43.80
2019-05-03T17:52:46.697Z,43.80
2019-05-03T17:55:19.555Z,43.80
2019-05-03T17:57:55.166Z,43.70
2019-05-03T18:00:26.831Z,43.80
2019-05-03T18:02:55.446Z,43.80
2019-05-03T18:05:48.696Z,43.80
2019-05-03T18:08:31.083Z,43.70
2019-05-03T18:11:04.884Z,43.70
2019-05-03T18:13:32.760Z,43.80
2019-05-03T18:15:59.324Z,43.70
2019-05-03T18:18:26.475Z,43.70
2019-05-03T18:20:55.407Z,43.60
2019-05-03T18:23:20.813Z,43.70
2019-05-03T18:25:48.043Z,43.60
2019-05-03T18:28:15.336Z,43.60
2019-05-03T18:30:42.471Z,43.80
2019-05-03T18:33:09.655Z,43.70
2019-05-03T18:35:36.763Z,43.60
2019-05-03T18:38:04.017Z,43.70
2019-05-03T18:40:31.123Z,43.70
2019-05-03T18:43:02.166Z,43.60
2019-05-03T18:45:35.828Z,43.70
2019-05-03T18:48:04.940Z,43.60
2019-05-03T18:50:30.806Z,43.70
2019-05-03T18:52:57.958Z,43.50
2019-05-03T18:55:25.324Z,43.70
2019-05-03T18:57:52.267Z,43.60
2019-05-03T19:00:19.372Z,43.70
2019-05-03T19:02:46.483Z,43.60
2019-05-03T19:05:15.193Z,43.70
2019-05-03T19:07:46.502Z,43.50
2019-05-03T19:10:24.757Z,43.60
2019-05-03T19:12:55.235Z,43.50
2019-05-03T19:15:22.095Z,43.70
2019-05-03T19:17:56.494Z,43.50
2019-05-03T19:20:24.681Z,43.50
2019-05-03T19:22:50.771Z,43.70
2019-05-03T19:25:18.374Z,43.50
2019-05-03T19:27:45.538Z,43.40
2019-05-03T19:30:14.758Z,43.50
2019-05-03T19:32:39.839Z,43.50
2019-05-03T19:35:06.996Z,43.60
2019-05-03T19:37:34.608Z,43.60
2019-05-03T19:40:01.715Z,43.40
2019-05-03T19:42:28.860Z,43.40
2019-05-03T19:44:56.107Z,43.40
2019-05-03T19:47:25.110Z,43.40
2019-05-03T19:49:50.480Z,43.30
2019-05-03T19:52:18.471Z,43.40
2019-05-03T19:54:45.596Z,43.50
2019-05-03T19:57:12.696Z,43.50
2019-05-03T19:59:45.745Z,43.40
2019-05-03T20:02:17.518Z,43.40
2019-05-03T20:05:53.340Z,43.30
2019-05-03T20:08:24.816Z,43.50
2019-05-03T20:10:56.603Z,43.50
2019-05-03T20:13:34.178Z,43.40
2019-05-03T20:15:50.819Z,43.40
2019-05-03T20:18:18.150Z,43.40
2019-05-03T20:20:45.204Z,43.30
2019-05-03T20:23:17.095Z,43.40
2019-05-03T20:25:44.243Z,43.30
2019-05-03T20:28:11.322Z,43.30
2019-05-03T20:30:38.466Z,43.30
2019-05-03T20:33:05.640Z,43.40
2019-05-03T20:35:32.792Z,43.40
2019-05-03T20:37:59.990Z,43.40
2019-05-03T20:40:27.163Z,43.40
2019-05-03T20:43:00.789Z,43.40
2019-05-03T20:45:32.604Z,43.40
2019-05-03T20:47:59.760Z,43.30
2019-05-03T20:50:26.884Z,43.40
2019-05-03T20:52:54.977Z,43.40
2019-05-03T20:55:21.754Z,43.40
2019-05-03T20:57:48.982Z,43.30
2019-05-03T21:00:17.067Z,43.30
2019-05-03T21:02:51.631Z,43.30
2019-05-03T21:05:23.777Z,43.30
2019-05-03T21:07:38.906Z,43.30
2019-05-03T21:10:06.124Z,43.30
2019-05-03T21:12:34.670Z,43.30
2019-05-03T21:15:00.420Z,43.20
2019-05-03T21:17:39.071Z,43.30
2019-05-03T21:20:12.397Z,43.30
2019-05-03T21:22:44.321Z,43.30
2019-05-03T21:25:13.527Z,43.20
2019-05-03T21:27:40.725Z,43.30
2019-05-03T21:30:07.849Z,43.20
2019-05-03T21:32:35.197Z,43.30
2019-05-03T21:35:02.350Z,43.20
2019-05-03T21:37:29.503Z,43.20
2019-05-03T21:39:56.590Z,43.30
2019-05-03T21:42:23.726Z,43.30
2019-05-03T21:44:50.855Z,43.20
2019-05-03T21:47:25.047Z,43.20
2019-05-03T21:49:52.238Z,43.20
2019-05-03T21:52:19.349Z,43.20
2019-05-03T21:54:46.567Z,43.20
2019-05-03T21:57:14.291Z,43.20
2019-05-03T21:59:40.926Z,43.20
2019-05-03T22:02:08.073Z,43.30
2019-05-03T22:04:35.254Z,43.10
2019-05-03T22:07:02.384Z,43.20
2019-05-03T22:09:29.643Z,43.30
2019-05-03T22:11:56.779Z,43.20
2019-05-03T22:14:28.631Z,43.20
2019-05-03T22:17:00.440Z,43.20
2019-05-03T22:19:27.645Z,43.20
2019-05-03T22:22:00.531Z,43.20
2019-05-03T22:24:32.114Z,43.20
2019-05-03T22:27:01.572Z,43.30
2019-05-03T22:29:28.675Z,43.20
2019-05-03T22:31:55.760Z,43.20
2019-05-03T22:34:22.892Z,43.20
2019-05-03T22:36:49.996Z,43.30
2019-05-03T22:39:17.263Z,43.20
2019-05-03T22:41:44.445Z,43.40
2019-05-03T22:44:11.583Z,43.30
2019-05-03T22:46:38.699Z,43.30
2019-05-03T22:49:05.887Z,43.30
2019-05-03T22:51:34.571Z,43.30
2019-05-03T22:54:00.195Z,43.30
2019-05-03T22:56:27.549Z,43.30
2019-05-03T22:58:54.863Z,43.40
2019-05-03T23:01:21.804Z,43.30
2019-05-03T23:03:48.914Z,43.30
2019-05-03T23:06:22.114Z,43.30
2019-05-03T23:08:43.135Z,43.30
2019-05-03T23:11:10.287Z,43.30
2019-05-03T23:13:37.407Z,43.40
2019-05-03T23:16:05.187Z,43.40
2019-05-03T23:18:32.331Z,43.40
2019-05-03T23:25:38.304Z,43.30
2019-05-03T23:28:05.471Z,43.40
2019-05-03T23:30:32.605Z,43.40
2019-05-03T23:32:59.738Z,43.40
2019-05-03T23:35:27.307Z,43.40
2019-05-03T23:37:54.510Z,43.40
2019-05-03T23:40:21.656Z,43.40
2019-05-03T23:42:48.780Z,43.40
2019-05-03T23:45:16.771Z,43.40
2019-05-03T23:47:45.599Z,43.40
2019-05-03T23:50:15.147Z,43.50
2019-05-03T23:52:42.232Z,43.30
2019-05-03T23:55:14.761Z,43.40
2019-05-03T23:57:41.119Z,43.40
